sensor_id;sensor_type;location;lat;lon;timestamp;P1;durP1;ratioP1;P2;durP2;ratioP2
42124;SDS011;27787;44.594;11.046;2022-10-16T00:02:11;20.73;;;9.98;;
42124;SDS011;27787;44.594;11.046;2022-10-16T00:04:55;17.63;;;9.57;;
42124;SDS011;27787;44.594;11.046;2022-10-16T00:07:39;16.73;;;10.13;;
42124;SDS011;27787;44.594;11.046;2022-10-16T00:10:23;21.02;;;10.93;;
42124;SDS011;27787;44.594;11.046;2022-10-16T00:13:07;23.40;;;10.27;;
42124;SDS011;27787;44.594;11.046;2022-10-16T00:15:54;15.52;;;10.00;;
42124;SDS011;27787;44.594;11.046;2022-10-16T00:18:38;19.38;;;9.85;;
42124;SDS011;27787;44.594;11.046;2022-10-16T00:21:25;18.52;;;9.75;;
42124;SDS011;27787;44.594;11.046;2022-10-16T00:24:10;18.75;;;9.75;;
42124;SDS011;27787;44.594;11.046;2022-10-16T00:26:54;18.05;;;10.15;;
42124;SDS011;27787;44.594;11.046;2022-10-16T00:29:38;18.85;;;9.82;;
42124;SDS011;27787;44.594;11.046;2022-10-16T00:32:23;19.63;;;9.50;;
42124;SDS011;27787;44.594;11.046;2022-10-16T00:35:07;23.17;;;10.15;;
42124;SDS011;27787;44.594;11.046;2022-10-16T00:37:52;19.83;;;10.25;;
42124;SDS011;27787;44.594;11.046;2022-10-16T00:40:36;20.23;;;10.25;;
42124;SDS011;27787;44.594;11.046;2022-10-16T00:46:23;17.08;;;9.80;;
42124;SDS011;27787;44.594;11.046;2022-10-16T00:49:29;18.23;;;9.32;;
42124;SDS011;27787;44.594;11.046;2022-10-16T00:52:14;16.92;;;9.05;;
42124;SDS011;27787;44.594;11.046;2022-10-16T00:54:58;13.77;;;8.52;;
42124;SDS011;27787;44.594;11.046;2022-10-16T00:57:44;16.65;;;8.77;;
42124;SDS011;27787;44.594;11.046;2022-10-16T01:00:30;17.85;;;8.25;;
42124;SDS011;27787;44.594;11.046;2022-10-16T01:12:30;15.95;;;8.25;;
42124;SDS011;27787;44.594;11.046;2022-10-16T01:18:51;12.57;;;7.60;;
42124;SDS011;27787;44.594;11.046;2022-10-16T01:21:42;15.52;;;7.15;;
42124;SDS011;27787;44.594;11.046;2022-10-16T01:24:39;14.65;;;8.20;;
42124;SDS011;27787;44.594;11.046;2022-10-16T01:27:26;13.90;;;7.88;;
42124;SDS011;27787;44.594;11.046;2022-10-16T01:30:18;18.13;;;8.20;;
42124;SDS011;27787;44.594;11.046;2022-10-16T01:33:13;15.90;;;8.00;;
42124;SDS011;27787;44.594;11.046;2022-10-16T01:36:05;14.18;;;7.43;;
42124;SDS011;27787;44.594;11.046;2022-10-16T01:38:56;13.95;;;8.02;;
42124;SDS011;27787;44.594;11.046;2022-10-16T01:41:45;19.40;;;8.13;;
42124;SDS011;27787;44.594;11.046;2022-10-16T01:44:35;17.40;;;7.30;;
42124;SDS011;27787;44.594;11.046;2022-10-16T01:47:23;14.52;;;7.82;;
42124;SDS011;27787;44.594;11.046;2022-10-16T01:50:10;16.23;;;8.30;;
42124;SDS011;27787;44.594;11.046;2022-10-16T01:52:56;13.48;;;7.90;;
42124;SDS011;27787;44.594;11.046;2022-10-16T01:55:44;14.38;;;8.23;;
42124;SDS011;27787;44.594;11.046;2022-10-16T01:58:33;20.52;;;7.90;;
42124;SDS011;27787;44.594;11.046;2022-10-16T02:01:21;16.77;;;8.77;;
42124;SDS011;27787;44.594;11.046;2022-10-16T02:04:11;14.52;;;7.88;;
42124;SDS011;27787;44.594;11.046;2022-10-16T02:07:00;14.60;;;8.27;;
42124;SDS011;27787;44.594;11.046;2022-10-16T02:09:45;15.57;;;8.93;;
42124;SDS011;27787;44.594;11.046;2022-10-16T02:12:30;14.00;;;8.55;;
42124;SDS011;27787;44.594;11.046;2022-10-16T02:15:17;13.52;;;7.20;;
42124;SDS011;27787;44.594;11.046;2022-10-16T02:18:02;13.27;;;7.43;;
42124;SDS011;27787;44.594;11.046;2022-10-16T02:20:51;17.13;;;8.88;;
42124;SDS011;27787;44.594;11.046;2022-10-16T02:26:41;12.75;;;7.50;;
42124;SDS011;27787;44.594;11.046;2022-10-16T02:29:32;16.20;;;8.27;;
42124;SDS011;27787;44.594;11.046;2022-10-16T02:32:23;18.70;;;8.35;;
42124;SDS011;27787;44.594;11.046;2022-10-16T02:35:17;16.77;;;8.70;;
42124;SDS011;27787;44.594;11.046;2022-10-16T02:38:04;12.50;;;7.38;;
42124;SDS011;27787;44.594;11.046;2022-10-16T02:40:49;15.63;;;8.20;;
42124;SDS011;27787;44.594;11.046;2022-10-16T02:43:34;13.90;;;8.07;;
42124;SDS011;27787;44.594;11.046;2022-10-16T02:46:18;16.50;;;8.07;;
42124;SDS011;27787;44.594;11.046;2022-10-16T02:49:03;14.98;;;8.45;;
42124;SDS011;27787;44.594;11.046;2022-10-16T02:51:47;14.10;;;6.90;;
42124;SDS011;27787;44.594;11.046;2022-10-16T02:54:31;15.90;;;8.07;;
42124;SDS011;27787;44.594;11.046;2022-10-16T02:57:15;11.82;;;7.50;;
42124;SDS011;27787;44.594;11.046;2022-10-16T02:59:59;12.43;;;7.90;;
42124;SDS011;27787;44.594;11.046;2022-10-16T03:02:43;14.75;;;7.82;;
42124;SDS011;27787;44.594;11.046;2022-10-16T03:05:28;17.98;;;8.13;;
42124;SDS011;27787;44.594;11.046;2022-10-16T03:08:12;14.60;;;7.93;;
42124;SDS011;27787;44.594;11.046;2022-10-16T03:10:57;17.38;;;7.50;;
42124;SDS011;27787;44.594;11.046;2022-10-16T03:13:41;14.23;;;7.20;;
42124;SDS011;27787;44.594;11.046;2022-10-16T03:16:25;13.80;;;7.43;;
42124;SDS011;27787;44.594;11.046;2022-10-16T03:19:09;14.52;;;6.88;;
42124;SDS011;27787;44.594;11.046;2022-10-16T03:21:53;12.60;;;7.60;;
42124;SDS011;27787;44.594;11.046;2022-10-16T03:24:37;17.25;;;7.60;;
42124;SDS011;27787;44.594;11.046;2022-10-16T03:27:22;14.55;;;7.40;;
42124;SDS011;27787;44.594;11.046;2022-10-16T03:30:06;15.40;;;7.63;;
42124;SDS011;27787;44.594;11.046;2022-10-16T03:32:51;15.63;;;7.47;;
42124;SDS011;27787;44.594;11.046;2022-10-16T03:35:38;16.25;;;7.47;;
42124;SDS011;27787;44.594;11.046;2022-10-16T03:38:21;17.95;;;7.65;;
42124;SDS011;27787;44.594;11.046;2022-10-16T03:41:05;12.05;;;6.88;;
42124;SDS011;27787;44.594;11.046;2022-10-16T03:43:51;11.95;;;7.25;;
42124;SDS011;27787;44.594;11.046;2022-10-16T03:46:35;10.73;;;6.85;;
42124;SDS011;27787;44.594;11.046;2022-10-16T03:49:19;14.18;;;6.55;;
42124;SDS011;27787;44.594;11.046;2022-10-16T03:52:03;15.90;;;7.18;;
42124;SDS011;27787;44.594;11.046;2022-10-16T03:54:47;14.57;;;8.07;;
42124;SDS011;27787;44.594;11.046;2022-10-16T03:57:31;13.80;;;7.43;;
42124;SDS011;27787;44.594;11.046;2022-10-16T04:00:15;13.60;;;7.38;;
42124;SDS011;27787;44.594;11.046;2022-10-16T04:03:00;24.02;;;7.93;;
42124;SDS011;27787;44.594;11.046;2022-10-16T04:05:44;12.27;;;7.15;;
42124;SDS011;27787;44.594;11.046;2022-10-16T04:08:29;15.20;;;7.53;;
42124;SDS011;27787;44.594;11.046;2022-10-16T04:11:13;11.70;;;7.22;;
42124;SDS011;27787;44.594;11.046;2022-10-16T04:13:57;12.80;;;7.20;;
42124;SDS011;27787;44.594;11.046;2022-10-16T04:16:42;16.23;;;8.57;;
42124;SDS011;27787;44.594;11.046;2022-10-16T04:19:26;13.90;;;8.90;;
42124;SDS011;27787;44.594;11.046;2022-10-16T04:22:10;13.38;;;7.80;;
42124;SDS011;27787;44.594;11.046;2022-10-16T04:24:53;12.68;;;7.57;;
42124;SDS011;27787;44.594;11.046;2022-10-16T04:27:38;13.73;;;8.05;;
42124;SDS011;27787;44.594;11.046;2022-10-16T04:30:22;17.25;;;9.43;;
42124;SDS011;27787;44.594;11.046;2022-10-16T04:33:08;13.93;;;7.68;;
42124;SDS011;27787;44.594;11.046;2022-10-16T04:35:56;15.68;;;8.25;;
42124;SDS011;27787;44.594;11.046;2022-10-16T04:38:41;17.52;;;9.52;;
42124;SDS011;27787;44.594;11.046;2022-10-16T04:41:26;14.38;;;8.82;;
42124;SDS011;27787;44.594;11.046;2022-10-16T04:44:10;18.92;;;9.30;;
42124;SDS011;27787;44.594;11.046;2022-10-16T04:46:54;14.73;;;8.98;;
42124;SDS011;27787;44.594;11.046;2022-10-16T04:49:38;19.33;;;9.18;;
42124;SDS011;27787;44.594;11.046;2022-10-16T04:52:22;19.42;;;8.10;;
42124;SDS011;27787;44.594;11.046;2022-10-16T04:55:08;15.55;;;8.20;;
42124;SDS011;27787;44.594;11.046;2022-10-16T04:57:53;17.83;;;9.98;;
42124;SDS011;27787;44.594;11.046;2022-10-16T05:00:36;18.63;;;10.02;;
42124;SDS011;27787;44.594;11.046;2022-10-16T05:03:21;16.25;;;8.38;;
42124;SDS011;27787;44.594;11.046;2022-10-16T05:06:06;15.77;;;8.50;;
42124;SDS011;27787;44.594;11.046;2022-10-16T05:08:50;17.90;;;9.00;;
42124;SDS011;27787;44.594;11.046;2022-10-16T05:11:34;15.45;;;9.30;;
42124;SDS011;27787;44.594;11.046;2022-10-16T05:14:19;15.80;;;9.02;;
42124;SDS011;27787;44.594;11.046;2022-10-16T05:17:03;20.67;;;8.75;;
42124;SDS011;27787;44.594;11.046;2022-10-16T05:19:47;19.98;;;9.13;;
42124;SDS011;27787;44.594;11.046;2022-10-16T05:22:31;16.75;;;9.25;;
42124;SDS011;27787;44.594;11.046;2022-10-16T05:25:15;16.90;;;9.85;;
42124;SDS011;27787;44.594;11.046;2022-10-16T05:27:59;18.60;;;9.70;;
42124;SDS011;27787;44.594;11.046;2022-10-16T05:30:43;15.63;;;8.85;;
42124;SDS011;27787;44.594;11.046;2022-10-16T05:33:27;17.95;;;10.05;;
42124;SDS011;27787;44.594;11.046;2022-10-16T05:36:11;19.30;;;9.77;;
42124;SDS011;27787;44.594;11.046;2022-10-16T05:38:56;19.50;;;9.75;;
42124;SDS011;27787;44.594;11.046;2022-10-16T05:41:40;19.60;;;10.10;;
42124;SDS011;27787;44.594;11.046;2022-10-16T05:44:24;17.80;;;9.52;;
42124;SDS011;27787;44.594;11.046;2022-10-16T05:47:09;18.00;;;9.52;;
42124;SDS011;27787;44.594;11.046;2022-10-16T05:49:54;17.30;;;8.98;;
42124;SDS011;27787;44.594;11.046;2022-10-16T05:52:39;14.40;;;8.43;;
42124;SDS011;27787;44.594;11.046;2022-10-16T05:55:23;18.55;;;9.40;;
42124;SDS011;27787;44.594;11.046;2022-10-16T05:58:08;17.42;;;9.32;;
42124;SDS011;27787;44.594;11.046;2022-10-16T06:03:43;19.25;;;9.45;;
42124;SDS011;27787;44.594;11.046;2022-10-16T06:06:28;16.23;;;8.40;;
42124;SDS011;27787;44.594;11.046;2022-10-16T06:09:13;14.43;;;8.73;;
42124;SDS011;27787;44.594;11.046;2022-10-16T06:11:57;14.27;;;8.25;;
42124;SDS011;27787;44.594;11.046;2022-10-16T06:14:42;13.32;;;7.50;;
42124;SDS011;27787;44.594;11.046;2022-10-16T06:17:26;11.32;;;7.47;;
42124;SDS011;27787;44.594;11.046;2022-10-16T06:20:11;14.10;;;6.95;;
42124;SDS011;27787;44.594;11.046;2022-10-16T06:22:55;11.75;;;6.63;;
42124;SDS011;27787;44.594;11.046;2022-10-16T06:28:25;13.82;;;7.22;;
42124;SDS011;27787;44.594;11.046;2022-10-16T06:31:09;18.75;;;8.02;;
42124;SDS011;27787;44.594;11.046;2022-10-16T06:33:54;12.30;;;7.28;;
42124;SDS011;27787;44.594;11.046;2022-10-16T06:36:40;11.70;;;7.40;;
42124;SDS011;27787;44.594;11.046;2022-10-16T06:39:24;17.70;;;7.05;;
42124;SDS011;27787;44.594;11.046;2022-10-16T06:42:08;17.00;;;8.18;;
42124;SDS011;27787;44.594;11.046;2022-10-16T06:44:53;13.52;;;7.45;;
42124;SDS011;27787;44.594;11.046;2022-10-16T06:47:37;12.73;;;7.30;;
42124;SDS011;27787;44.594;11.046;2022-10-16T06:50:21;13.40;;;7.30;;
42124;SDS011;27787;44.594;11.046;2022-10-16T06:53:06;14.93;;;8.35;;
42124;SDS011;27787;44.594;11.046;2022-10-16T06:55:50;16.73;;;8.80;;
42124;SDS011;27787;44.594;11.046;2022-10-16T06:58:34;19.17;;;8.60;;
42124;SDS011;27787;44.594;11.046;2022-10-16T07:01:19;18.17;;;9.25;;
42124;SDS011;27787;44.594;11.046;2022-10-16T07:04:05;21.55;;;10.32;;
42124;SDS011;27787;44.594;11.046;2022-10-16T07:06:49;20.67;;;10.07;;
42124;SDS011;27787;44.594;11.046;2022-10-16T07:09:35;26.38;;;12.55;;
42124;SDS011;27787;44.594;11.046;2022-10-16T07:12:19;23.23;;;12.27;;
42124;SDS011;27787;44.594;11.046;2022-10-16T07:15:03;22.65;;;12.15;;
42124;SDS011;27787;44.594;11.046;2022-10-16T07:17:47;24.77;;;11.63;;
42124;SDS011;27787;44.594;11.046;2022-10-16T07:20:32;25.33;;;12.02;;
42124;SDS011;27787;44.594;11.046;2022-10-16T07:23:17;23.65;;;13.52;;
42124;SDS011;27787;44.594;11.046;2022-10-16T07:26:01;23.15;;;13.23;;
42124;SDS011;27787;44.594;11.046;2022-10-16T07:28:46;34.00;;;14.18;;
42124;SDS011;27787;44.594;11.046;2022-10-16T07:31:30;30.52;;;15.98;;
42124;SDS011;27787;44.594;11.046;2022-10-16T07:34:15;38.10;;;17.30;;
42124;SDS011;27787;44.594;11.046;2022-10-16T07:37:01;41.17;;;19.25;;
42124;SDS011;27787;44.594;11.046;2022-10-16T07:39:45;48.72;;;19.25;;
42124;SDS011;27787;44.594;11.046;2022-10-16T07:42:29;37.20;;;18.80;;
42124;SDS011;27787;44.594;11.046;2022-10-16T07:45:14;43.20;;;19.40;;
42124;SDS011;27787;44.594;11.046;2022-10-16T07:47:58;40.05;;;19.88;;
42124;SDS011;27787;44.594;11.046;2022-10-16T07:50:42;38.92;;;18.17;;
42124;SDS011;27787;44.594;11.046;2022-10-16T07:53:27;39.28;;;18.88;;
42124;SDS011;27787;44.594;11.046;2022-10-16T07:56:12;38.65;;;20.05;;
42124;SDS011;27787;44.594;11.046;2022-10-16T07:58:57;43.15;;;19.70;;
42124;SDS011;27787;44.594;11.046;2022-10-16T08:01:41;34.65;;;18.40;;
42124;SDS011;27787;44.594;11.046;2022-10-16T08:04:28;36.67;;;17.77;;
42124;SDS011;27787;44.594;11.046;2022-10-16T08:07:12;40.42;;;18.45;;
42124;SDS011;27787;44.594;11.046;2022-10-16T08:09:57;30.10;;;14.02;;
42124;SDS011;27787;44.594;11.046;2022-10-16T08:12:42;25.52;;;13.07;;
42124;SDS011;27787;44.594;11.046;2022-10-16T08:15:27;19.17;;;10.68;;
42124;SDS011;27787;44.594;11.046;2022-10-16T08:18:12;20.88;;;11.88;;
42124;SDS011;27787;44.594;11.046;2022-10-16T08:20:58;26.05;;;12.27;;
42124;SDS011;27787;44.594;11.046;2022-10-16T08:23:44;28.50;;;13.32;;
42124;SDS011;27787;44.594;11.046;2022-10-16T08:26:28;22.83;;;11.95;;
42124;SDS011;27787;44.594;11.046;2022-10-16T08:29:13;25.70;;;12.98;;
42124;SDS011;27787;44.594;11.046;2022-10-16T08:31:57;25.88;;;12.38;;
42124;SDS011;27787;44.594;11.046;2022-10-16T08:34:42;24.10;;;12.80;;
42124;SDS011;27787;44.594;11.046;2022-10-16T08:37:29;31.10;;;14.88;;
42124;SDS011;27787;44.594;11.046;2022-10-16T08:40:27;32.20;;;14.80;;
42124;SDS011;27787;44.594;11.046;2022-10-16T08:46:22;30.00;;;15.23;;
42124;SDS011;27787;44.594;11.046;2022-10-16T08:49:13;33.70;;;14.95;;
42124;SDS011;27787;44.594;11.046;2022-10-16T08:51:57;28.42;;;15.07;;
42124;SDS011;27787;44.594;11.046;2022-10-16T08:54:42;28.20;;;15.27;;
42124;SDS011;27787;44.594;11.046;2022-10-16T08:57:30;27.88;;;14.35;;
42124;SDS011;27787;44.594;11.046;2022-10-16T09:00:16;25.13;;;13.85;;
42124;SDS011;27787;44.594;11.046;2022-10-16T09:03:14;31.08;;;13.68;;
42124;SDS011;27787;44.594;11.046;2022-10-16T09:06:07;30.02;;;14.75;;
42124;SDS011;27787;44.594;11.046;2022-10-16T09:21:07;31.05;;;17.00;;
42124;SDS011;27787;44.594;11.046;2022-10-16T09:27:12;36.03;;;17.48;;
42124;SDS011;27787;44.594;11.046;2022-10-16T09:29:57;41.92;;;19.77;;
42124;SDS011;27787;44.594;11.046;2022-10-16T09:32:42;39.00;;;19.08;;
42124;SDS011;27787;44.594;11.046;2022-10-16T09:35:32;39.53;;;18.85;;
42124;SDS011;27787;44.594;11.046;2022-10-16T09:41:16;34.55;;;17.90;;
42124;SDS011;27787;44.594;11.046;2022-10-16T09:44:04;40.28;;;19.65;;
42124;SDS011;27787;44.594;11.046;2022-10-16T09:49:51;37.63;;;18.48;;
42124;SDS011;27787;44.594;11.046;2022-10-16T09:52:35;40.22;;;20.00;;
42124;SDS011;27787;44.594;11.046;2022-10-16T09:55:19;44.70;;;20.73;;
42124;SDS011;27787;44.594;11.046;2022-10-16T09:58:03;35.85;;;19.50;;
42124;SDS011;27787;44.594;11.046;2022-10-16T10:00:57;37.58;;;18.60;;
42124;SDS011;27787;44.594;11.046;2022-10-16T10:03:42;40.40;;;19.30;;
42124;SDS011;27787;44.594;11.046;2022-10-16T10:06:34;40.05;;;20.75;;
42124;SDS011;27787;44.594;11.046;2022-10-16T10:12:24;38.35;;;18.77;;
42124;SDS011;27787;44.594;11.046;2022-10-16T10:15:11;38.38;;;19.75;;
42124;SDS011;27787;44.594;11.046;2022-10-16T10:17:57;38.50;;;19.65;;
42124;SDS011;27787;44.594;11.046;2022-10-16T10:20:41;40.45;;;19.92;;
42124;SDS011;27787;44.594;11.046;2022-10-16T10:23:25;37.97;;;18.83;;
42124;SDS011;27787;44.594;11.046;2022-10-16T10:26:20;40.00;;;18.10;;
42124;SDS011;27787;44.594;11.046;2022-10-16T10:38:35;30.65;;;16.40;;
42124;SDS011;27787;44.594;11.046;2022-10-16T10:51:13;28.05;;;15.50;;
42124;SDS011;27787;44.594;11.046;2022-10-16T10:54:14;30.10;;;16.00;;
42124;SDS011;27787;44.594;11.046;2022-10-16T11:00:20;29.67;;;14.55;;
42124;SDS011;27787;44.594;11.046;2022-10-16T11:09:30;21.95;;;12.93;;
42124;SDS011;27787;44.594;11.046;2022-10-16T11:12:20;27.13;;;13.43;;
42124;SDS011;27787;44.594;11.046;2022-10-16T11:15:14;22.65;;;11.82;;
42124;SDS011;27787;44.594;11.046;2022-10-16T11:18:07;19.45;;;10.30;;
42124;SDS011;27787;44.594;11.046;2022-10-16T11:21:02;24.45;;;12.07;;
42124;SDS011;27787;44.594;11.046;2022-10-16T11:24:01;21.80;;;11.30;;
42124;SDS011;27787;44.594;11.046;2022-10-16T11:27:06;22.90;;;11.02;;
42124;SDS011;27787;44.594;11.046;2022-10-16T11:29:56;16.50;;;9.98;;
42124;SDS011;27787;44.594;11.046;2022-10-16T11:33:02;24.25;;;11.77;;
42124;SDS011;27787;44.594;11.046;2022-10-16T11:36:12;28.13;;;11.73;;
42124;SDS011;27787;44.594;11.046;2022-10-16T11:39:11;22.13;;;10.27;;
42124;SDS011;27787;44.594;11.046;2022-10-16T11:42:09;21.17;;;9.15;;
42124;SDS011;27787;44.594;11.046;2022-10-16T11:51:05;20.35;;;10.13;;
42124;SDS011;27787;44.594;11.046;2022-10-16T11:56:58;23.15;;;10.43;;
42124;SDS011;27787;44.594;11.046;2022-10-16T11:59:49;25.90;;;11.02;;
42124;SDS011;27787;44.594;11.046;2022-10-16T12:05:42;21.65;;;10.10;;
42124;SDS011;27787;44.594;11.046;2022-10-16T12:08:50;19.95;;;8.82;;
42124;SDS011;27787;44.594;11.046;2022-10-16T12:11:37;15.40;;;8.18;;
42124;SDS011;27787;44.594;11.046;2022-10-16T12:23:01;14.13;;;7.70;;
42124;SDS011;27787;44.594;11.046;2022-10-16T12:25:53;15.45;;;7.30;;
42124;SDS011;27787;44.594;11.046;2022-10-16T12:28:39;14.05;;;7.32;;
42124;SDS011;27787;44.594;11.046;2022-10-16T12:31:23;21.95;;;8.57;;
42124;SDS011;27787;44.594;11.046;2022-10-16T12:37:32;16.17;;;8.13;;
42124;SDS011;27787;44.594;11.046;2022-10-16T12:40:27;15.75;;;8.02;;
42124;SDS011;27787;44.594;11.046;2022-10-16T12:46:05;17.02;;;9.23;;
42124;SDS011;27787;44.594;11.046;2022-10-16T12:49:15;15.82;;;7.90;;
42124;SDS011;27787;44.594;11.046;2022-10-16T12:52:22;15.13;;;7.43;;
42124;SDS011;27787;44.594;11.046;2022-10-16T12:55:17;14.98;;;6.85;;
42124;SDS011;27787;44.594;11.046;2022-10-16T13:01:11;12.27;;;6.13;;
42124;SDS011;27787;44.594;11.046;2022-10-16T13:06:54;12.82;;;7.28;;
42124;SDS011;27787;44.594;11.046;2022-10-16T13:16:12;13.45;;;7.47;;
42124;SDS011;27787;44.594;11.046;2022-10-16T13:22:16;13.70;;;7.32;;
42124;SDS011;27787;44.594;11.046;2022-10-16T13:28:02;14.05;;;7.07;;
42124;SDS011;27787;44.594;11.046;2022-10-16T13:30:52;11.25;;;6.32;;
42124;SDS011;27787;44.594;11.046;2022-10-16T13:33:39;14.20;;;7.88;;
42124;SDS011;27787;44.594;11.046;2022-10-16T13:36:27;16.55;;;6.97;;
42124;SDS011;27787;44.594;11.046;2022-10-16T13:39:20;11.30;;;6.60;;
42124;SDS011;27787;44.594;11.046;2022-10-16T13:42:12;12.57;;;7.07;;
42124;SDS011;27787;44.594;11.046;2022-10-16T13:44:59;12.68;;;6.85;;
42124;SDS011;27787;44.594;11.046;2022-10-16T13:47:42;16.30;;;8.05;;
42124;SDS011;27787;44.594;11.046;2022-10-16T13:50:26;19.17;;;7.88;;
42124;SDS011;27787;44.594;11.046;2022-10-16T13:53:13;13.68;;;7.35;;
42124;SDS011;27787;44.594;11.046;2022-10-16T13:55:58;13.68;;;7.43;;
42124;SDS011;27787;44.594;11.046;2022-10-16T13:58:44;15.48;;;7.50;;
42124;SDS011;27787;44.594;11.046;2022-10-16T14:01:33;14.03;;;8.13;;
42124;SDS011;27787;44.594;11.046;2022-10-16T14:04:23;16.35;;;7.47;;
42124;SDS011;27787;44.594;11.046;2022-10-16T14:07:13;14.27;;;7.80;;
42124;SDS011;27787;44.594;11.046;2022-10-16T14:10:06;17.40;;;7.60;;
42124;SDS011;27787;44.594;11.046;2022-10-16T14:13:04;12.05;;;7.65;;
42124;SDS011;27787;44.594;11.046;2022-10-16T14:15:50;13.23;;;7.60;;
42124;SDS011;27787;44.594;11.046;2022-10-16T14:18:36;13.88;;;7.57;;
42124;SDS011;27787;44.594;11.046;2022-10-16T14:21:22;12.75;;;7.20;;
42124;SDS011;27787;44.594;11.046;2022-10-16T14:24:40;12.40;;;7.50;;
42124;SDS011;27787;44.594;11.046;2022-10-16T14:27:31;12.82;;;6.93;;
42124;SDS011;27787;44.594;11.046;2022-10-16T14:30:20;11.48;;;6.53;;
42124;SDS011;27787;44.594;11.046;2022-10-16T14:33:06;14.75;;;6.40;;
42124;SDS011;27787;44.594;11.046;2022-10-16T14:36:17;14.48;;;7.13;;
42124;SDS011;27787;44.594;11.046;2022-10-16T14:39:04;11.30;;;6.35;;
42124;SDS011;27787;44.594;11.046;2022-10-16T14:41:51;11.95;;;6.68;;
42124;SDS011;27787;44.594;11.046;2022-10-16T14:47:23;14.35;;;6.85;;
42124;SDS011;27787;44.594;11.046;2022-10-16T14:50:10;13.90;;;7.72;;
42124;SDS011;27787;44.594;11.046;2022-10-16T14:52:54;16.50;;;7.32;;
42124;SDS011;27787;44.594;11.046;2022-10-16T14:58:24;12.20;;;6.63;;
42124;SDS011;27787;44.594;11.046;2022-10-16T15:01:10;13.65;;;7.15;;
42124;SDS011;27787;44.594;11.046;2022-10-16T15:03:55;14.82;;;6.97;;
42124;SDS011;27787;44.594;11.046;2022-10-16T15:06:39;16.77;;;6.88;;
42124;SDS011;27787;44.594;11.046;2022-10-16T15:09:29;12.48;;;6.72;;
42124;SDS011;27787;44.594;11.046;2022-10-16T15:12:13;12.00;;;6.82;;
42124;SDS011;27787;44.594;11.046;2022-10-16T15:14:57;14.27;;;7.47;;
42124;SDS011;27787;44.594;11.046;2022-10-16T15:17:42;15.30;;;7.70;;
42124;SDS011;27787;44.594;11.046;2022-10-16T15:20:30;13.00;;;7.63;;
42124;SDS011;27787;44.594;11.046;2022-10-16T15:23:18;17.50;;;7.75;;
42124;SDS011;27787;44.594;11.046;2022-10-16T15:26:04;11.73;;;6.97;;
42124;SDS011;27787;44.594;11.046;2022-10-16T15:28:48;13.63;;;7.65;;
42124;SDS011;27787;44.594;11.046;2022-10-16T15:31:33;17.70;;;8.00;;
42124;SDS011;27787;44.594;11.046;2022-10-16T15:34:17;15.82;;;8.20;;
42124;SDS011;27787;44.594;11.046;2022-10-16T15:37:03;14.93;;;8.82;;
42124;SDS011;27787;44.594;11.046;2022-10-16T15:39:49;15.70;;;9.02;;
42124;SDS011;27787;44.594;11.046;2022-10-16T15:42:33;17.08;;;7.95;;
42124;SDS011;27787;44.594;11.046;2022-10-16T15:45:18;14.45;;;7.50;;
42124;SDS011;27787;44.594;11.046;2022-10-16T15:50:47;15.98;;;8.07;;
42124;SDS011;27787;44.594;11.046;2022-10-16T15:53:31;16.00;;;8.77;;
42124;SDS011;27787;44.594;11.046;2022-10-16T15:56:15;14.77;;;7.67;;
42124;SDS011;27787;44.594;11.046;2022-10-16T15:59:00;14.37;;;8.10;;
42124;SDS011;27787;44.594;11.046;2022-10-16T16:01:45;15.60;;;8.65;;
42124;SDS011;27787;44.594;11.046;2022-10-16T16:04:30;15.80;;;9.02;;
42124;SDS011;27787;44.594;11.046;2022-10-16T16:07:15;20.23;;;8.32;;
42124;SDS011;27787;44.594;11.046;2022-10-16T16:09:59;14.77;;;7.87;;
42124;SDS011;27787;44.594;11.046;2022-10-16T16:12:45;15.75;;;8.10;;
42124;SDS011;27787;44.594;11.046;2022-10-16T16:15:38;17.90;;;7.97;;
42124;SDS011;27787;44.594;11.046;2022-10-16T16:18:22;21.60;;;9.00;;
42124;SDS011;27787;44.594;11.046;2022-10-16T16:21:08;15.55;;;7.15;;
42124;SDS011;27787;44.594;11.046;2022-10-16T16:23:55;12.43;;;7.70;;
42124;SDS011;27787;44.594;11.046;2022-10-16T16:26:39;14.35;;;7.78;;
42124;SDS011;27787;44.594;11.046;2022-10-16T16:29:26;17.40;;;7.45;;
42124;SDS011;27787;44.594;11.046;2022-10-16T16:32:10;17.20;;;8.48;;
42124;SDS011;27787;44.594;11.046;2022-10-16T16:34:54;19.33;;;8.57;;
42124;SDS011;27787;44.594;11.046;2022-10-16T16:37:38;25.17;;;9.07;;
42124;SDS011;27787;44.594;11.046;2022-10-16T16:40:22;17.63;;;8.35;;
42124;SDS011;27787;44.594;11.046;2022-10-16T16:43:06;19.23;;;8.95;;
42124;SDS011;27787;44.594;11.046;2022-10-16T16:45:52;22.83;;;8.77;;
42124;SDS011;27787;44.594;11.046;2022-10-16T16:48:37;18.15;;;8.93;;
42124;SDS011;27787;44.594;11.046;2022-10-16T16:51:22;22.58;;;8.93;;
42124;SDS011;27787;44.594;11.046;2022-10-16T16:54:06;20.17;;;9.13;;
42124;SDS011;27787;44.594;11.046;2022-10-16T16:56:51;20.52;;;9.85;;
42124;SDS011;27787;44.594;11.046;2022-10-16T16:59:35;17.77;;;8.13;;
42124;SDS011;27787;44.594;11.046;2022-10-16T17:02:19;25.05;;;8.52;;
42124;SDS011;27787;44.594;11.046;2022-10-16T17:05:03;22.00;;;8.70;;
42124;SDS011;27787;44.594;11.046;2022-10-16T17:07:48;20.13;;;7.63;;
42124;SDS011;27787;44.594;11.046;2022-10-16T17:10:32;13.32;;;7.78;;
42124;SDS011;27787;44.594;11.046;2022-10-16T17:13:16;14.53;;;8.07;;
42124;SDS011;27787;44.594;11.046;2022-10-16T17:16:00;22.00;;;7.93;;
42124;SDS011;27787;44.594;11.046;2022-10-16T17:18:45;15.45;;;6.88;;
42124;SDS011;27787;44.594;11.046;2022-10-16T17:21:31;16.67;;;8.60;;
42124;SDS011;27787;44.594;11.046;2022-10-16T17:24:15;16.58;;;9.43;;
42124;SDS011;27787;44.594;11.046;2022-10-16T17:29:44;16.50;;;8.98;;
42124;SDS011;27787;44.594;11.046;2022-10-16T17:32:28;19.20;;;9.40;;
42124;SDS011;27787;44.594;11.046;2022-10-16T17:35:13;13.57;;;8.73;;
42124;SDS011;27787;44.594;11.046;2022-10-16T17:37:57;18.77;;;9.20;;
42124;SDS011;27787;44.594;11.046;2022-10-16T17:40:41;19.42;;;8.65;;
42124;SDS011;27787;44.594;11.046;2022-10-16T17:43:26;19.70;;;8.68;;
42124;SDS011;27787;44.594;11.046;2022-10-16T17:46:10;16.63;;;9.10;;
42124;SDS011;27787;44.594;11.046;2022-10-16T17:48:56;15.07;;;8.10;;
42124;SDS011;27787;44.594;11.046;2022-10-16T17:51:43;15.88;;;8.98;;
42124;SDS011;27787;44.594;11.046;2022-10-16T17:54:27;23.80;;;10.40;;
42124;SDS011;27787;44.594;11.046;2022-10-16T17:57:11;26.13;;;10.77;;
42124;SDS011;27787;44.594;11.046;2022-10-16T17:59:55;19.65;;;9.63;;
42124;SDS011;27787;44.594;11.046;2022-10-16T18:02:39;19.30;;;9.48;;
42124;SDS011;27787;44.594;11.046;2022-10-16T18:05:25;18.70;;;8.80;;
42124;SDS011;27787;44.594;11.046;2022-10-16T18:08:09;16.17;;;8.15;;
42124;SDS011;27787;44.594;11.046;2022-10-16T18:10:53;19.55;;;8.60;;
42124;SDS011;27787;44.594;11.046;2022-10-16T18:13:38;19.30;;;9.88;;
42124;SDS011;27787;44.594;11.046;2022-10-16T18:16:22;26.57;;;11.37;;
42124;SDS011;27787;44.594;11.046;2022-10-16T18:19:08;24.73;;;10.85;;
42124;SDS011;27787;44.594;11.046;2022-10-16T18:21:54;22.88;;;10.75;;
42124;SDS011;27787;44.594;11.046;2022-10-16T18:24:38;19.50;;;11.53;;
42124;SDS011;27787;44.594;11.046;2022-10-16T18:27:22;27.30;;;12.27;;
42124;SDS011;27787;44.594;11.046;2022-10-16T18:30:07;21.75;;;10.40;;